Time;durP1;ratioP1;P1;durP2;ratioP2;P2;SDS_P1;SDS_P2;PMS_P1;PMS_P2;Temp;Humidity;BMP_temperature;BMP_pressure;BME280_temperature;BME280_humidity;BME280_pressure;Samples;Min_cycle;Max_cycle;Signal;HPM_P1;HPM_P2
2021/12/23 00:00:39;;;;;;;48.47;22.27;;;;;;;-2.48;91.47;102100.34;5030660;28;20301;-72
2021/12/23 00:03:05;;;;;;;49.80;22.17;;;;;;;-2.49;91.13;102095.22;5030697;28;20190;-72
2021/12/23 00:05:30;;;;;;;51.53;23.30;;;;;;;-2.50;91.13;102095.94;5029196;28;20198;-72
2021/12/23 00:07:55;;;;;;;51.40;24.83;;;;;;;-2.47;91.32;102093.72;5030549;28;20232;-74
2021/12/23 00:10:21;;;;;;;52.60;24.80;;;;;;;-2.51;91.51;102089.16;5030591;28;20241;-72
2021/12/23 00:12:47;;;;;;;51.30;24.00;;;;;;;-2.58;91.36;102091.88;5029499;28;20179;-72
2021/12/23 00:18:18;;;;;;;52.73;23.07;;;;;;;-2.58;91.21;102082.72;5030762;28;20171;-72
2021/12/23 00:23:27;;;;;;;51.07;22.60;;;;;;;-2.58;91.06;102067.66;5030601;28;20489;-72
2021/12/23 00:25:56;;;;;;;51.30;22.90;;;;;;;-2.61;91.25;102061.50;5030592;28;20433;-71
2021/12/23 00:28:21;;;;;;;54.17;24.03;;;;;;;-2.63;91.09;102056.34;5030365;28;20787;-73
2021/12/23 00:30:47;;;;;;;52.17;22.90;;;;;;;-2.60;90.65;102055.75;5030186;28;20441;-74
2021/12/23 00:33:12;;;;;;;49.90;22.70;;;;;;;-2.65;90.88;102051.94;5029079;28;20614;-72
2021/12/23 00:35:37;;;;;;;51.73;23.80;;;;;;;-2.69;91.33;102058.31;5030149;28;20192;-73
2021/12/23 00:38:12;;;;;;;49.57;23.00;;;;;;;-2.64;91.16;102062.13;5028482;28;20549;-74
2021/12/23 00:40:37;;;;;;;49.93;23.00;;;;;;;-2.65;91.41;102047.84;5029787;28;20249;-74
2021/12/23 00:43:02;;;;;;;54.97;23.83;;;;;;;-2.65;91.29;102044.44;5029650;28;20481;-73
2021/12/23 00:45:28;;;;;;;53.33;22.93;;;;;;;-2.66;90.71;102035.16;5029519;28;20252;-74
2021/12/23 00:47:53;;;;;;;51.00;22.27;;;;;;;-2.63;91.45;102021.28;5028302;28;20214;-71
2021/12/23 00:50:19;;;;;;;49.93;23.50;;;;;;;-2.65;91.52;102021.88;5028851;28;20207;-71
2021/12/23 00:52:45;;;;;;;50.80;23.47;;;;;;;-2.68;91.44;102012.47;5029384;28;20217;-74
2021/12/23 00:55:11;;;;;;;53.97;23.23;;;;;;;-2.71;91.56;102004.66;5029568;28;20269;-71
2021/12/23 00:57:39;;;;;;;51.43;23.87;;;;;;;-2.68;91.08;101999.03;5029282;28;20451;-73
2021/12/23 01:00:12;;;;;;;55.27;23.77;;;;;;;-2.71;91.38;101994.66;5027714;28;20481;-73
2021/12/23 01:02:42;;;;;;;54.63;24.07;;;;;;;-2.72;91.30;101985.38;5029262;28;20445;-73
2021/12/23 01:05:08;;;;;;;50.83;23.43;;;;;;;-2.69;91.25;101987.28;5027550;28;20441;-73
2021/12/23 01:07:33;;;;;;;49.13;22.43;;;;;;;-2.67;90.88;101998.31;5029104;28;20467;-73
2021/12/23 01:09:59;;;;;;;52.20;23.87;;;;;;;-2.73;91.03;101996.16;5028862;28;20784;-74
2021/12/23 01:12:29;;;;;;;55.20;23.97;;;;;;;-2.65;90.93;101985.19;5025353;28;20198;-71
2021/12/23 01:15:10;;;;;;;51.10;24.20;;;;;;;-2.69;91.07;101980.66;5025017;28;20202;-73
2021/12/23 01:17:53;;;;;;;50.87;23.77;;;;;;;-2.61;91.00;101973.81;5015383;28;20500;-74
2021/12/23 01:20:25;;;;;;;49.10;23.53;;;;;;;-2.66;91.26;101968.38;5009426;28;20477;-73
2021/12/23 01:22:52;;;;;;;50.83;22.70;;;;;;;-2.59;91.21;101947.25;5016362;28;20591;-74
2021/12/23 01:25:17;;;;;;;49.33;22.27;;;;;;;-2.58;90.92;101944.00;5029146;28;20520;-71
2021/12/23 01:27:43;;;;;;;48.93;22.73;;;;;;;-2.62;90.64;101944.50;5029038;28;21005;-72
2021/12/23 01:30:08;;;;;;;54.57;25.00;;;;;;;-2.61;91.00;101937.09;5028692;28;20698;-74
2021/12/23 01:32:34;;;;;;;50.70;22.17;;;;;;;-2.68;91.18;101937.31;5028954;28;20388;-71
2021/12/23 01:34:59;;;;;;;52.17;23.47;;;;;;;-2.66;91.14;101942.44;5027684;28;20190;-71
2021/12/23 01:37:24;;;;;;;52.33;23.40;;;;;;;-2.64;90.86;101940.94;5028142;28;20194;-73
2021/12/23 01:39:50;;;;;;;52.40;22.67;;;;;;;-2.58;90.82;101941.50;5028999;28;20229;-73
2021/12/23 01:42:15;;;;;;;53.17;23.60;;;;;;;-2.61;90.91;101944.63;5028830;28;20202;-72
2021/12/23 01:44:40;;;;;;;48.97;23.23;;;;;;;-2.64;91.29;101945.97;5027419;28;20209;-73
2021/12/23 01:47:06;;;;;;;51.60;24.57;;;;;;;-2.62;91.11;101939.47;5029040;28;20202;-74
2021/12/23 01:49:31;;;;;;;48.87;22.97;;;;;;;-2.60;90.85;101940.47;5027399;28;20186;-73
2021/12/23 01:51:57;;;;;;;53.60;23.43;;;;;;;-2.59;91.09;101930.59;5027087;28;20683;-73
2021/12/23 01:54:22;;;;;;;58.67;24.10;;;;;;;-2.56;90.75;101928.38;5028858;28;20684;-73
2021/12/23 01:56:49;;;;;;;54.47;24.10;;;;;;;-2.59;90.82;101939.72;5028975;28;20202;-73
2021/12/23 01:59:17;;;;;;;52.13;24.23;;;;;;;-2.59;90.79;101933.09;5028480;28;20244;-73
2021/12/23 02:01:44;;;;;;;53.53;24.03;;;;;;;-2.59;90.47;101933.09;5028626;28;20552;-73
2021/12/23 02:04:10;;;;;;;49.27;23.23;;;;;;;-2.59;91.18;101933.09;5028501;28;20445;-74
2021/12/23 02:06:35;;;;;;;46.43;21.90;;;;;;;-2.57;90.70;101926.56;5028830;28;20432;-72
2021/12/23 02:09:01;;;;;;;52.97;23.47;;;;;;;-2.56;90.95;101925.88;5029904;28;20713;-73
2021/12/23 02:11:26;;;;;;;50.67;23.73;;;;;;;-2.56;90.88;101923.34;5032479;28;20214;-73
2021/12/23 02:13:51;;;;;;;54.20;23.63;;;;;;;-2.49;91.10;101915.59;5030892;28;20205;-73
2021/12/23 02:16:17;;;;;;;47.63;23.10;;;;;;;-2.44;90.78;101908.50;5031338;28;20191;-73
2021/12/23 02:18:42;;;;;;;53.93;25.50;;;;;;;-2.45;91.11;101904.22;5032309;28;20205;-73
2021/12/23 02:21:07;;;;;;;52.93;24.23;;;;;;;-2.46;90.73;101899.97;5030752;28;20310;-74
2021/12/23 02:23:33;;;;;;;49.70;22.27;;;;;;;-2.41;91.03;101896.22;5032113;28;20194;-73
2021/12/23 02:25:59;;;;;;;52.83;23.33;;;;;;;-2.39;90.94;101894.75;5031910;28;20190;-73
2021/12/23 02:28:26;;;;;;;50.53;23.63;;;;;;;-2.40;91.02;101888.84;5032062;28;20455;-73
2021/12/23 02:30:52;;;;;;;48.17;22.43;;;;;;;-2.38;91.20;101874.84;5031600;28;20214;-72
2021/12/23 02:33:19;;;;;;;52.77;23.47;;;;;;;-2.43;90.89;101876.03;5032008;28;20479;-73
2021/12/23 02:35:44;;;;;;;51.13;23.80;;;;;;;-2.41;90.65;101881.19;5032314;28;20191;-72
2021/12/23 02:38:09;;;;;;;52.73;22.77;;;;;;;-2.40;90.12;101881.31;5029872;28;20452;-72
2021/12/23 02:40:38;;;;;;;50.00;23.40;;;;;;;-2.40;90.60;101883.81;5030550;28;20226;-74
2021/12/23 02:43:14;;;;;;;48.90;22.87;;;;;;;-2.37;90.69;101879.09;5029964;28;20595;-73
2021/12/23 02:45:40;;;;;;;49.90;23.20;;;;;;;-2.38;90.51;101878.94;5031952;28;20548;-74
2021/12/23 02:48:14;;;;;;;48.30;22.50;;;;;;;-2.33;90.38;101871.09;5031851;28;20510;-72
2021/12/23 02:50:40;;;;;;;50.23;23.30;;;;;;;-2.31;90.43;101863.66;5031948;28;20206;-73
2021/12/23 02:53:06;;;;;;;45.10;22.70;;;;;;;-2.30;90.37;101843.75;5031608;28;20425;-74
2021/12/23 02:55:31;;;;;;;47.33;22.03;;;;;;;-2.26;90.53;101829.88;5031798;28;20447;-73
2021/12/23 02:57:56;;;;;;;49.37;22.77;;;;;;;-2.27;90.63;101843.13;5031013;28;20679;-73
2021/12/23 03:00:22;;;;;;;52.50;23.73;;;;;;;-2.29;90.83;101839.63;5030350;28;20595;-74
2021/12/23 03:02:47;;;;;;;49.17;22.73;;;;;;;-2.29;90.72;101832.97;5031195;28;20625;-74
2021/12/23 03:05:12;;;;;;;48.93;23.47;;;;;;;-2.24;90.58;101820.84;5030704;28;20659;-74
2021/12/23 03:07:38;;;;;;;48.70;23.63;;;;;;;-2.26;90.60;101817.34;5031409;28;20272;-74
2021/12/23 03:10:06;;;;;;;52.30;24.03;;;;;;;-2.24;90.61;101814.22;5031137;28;20243;-73
2021/12/23 03:12:31;;;;;;;49.37;24.27;;;;;;;-2.28;91.02;101814.69;5031364;28;20191;-73
2021/12/23 03:14:58;;;;;;;52.37;23.73;;;;;;;-2.29;90.53;101814.56;5031407;28;20952;-74
2021/12/23 03:17:23;;;;;;;51.47;23.80;;;;;;;-2.25;90.81;101816.59;5031445;28;20184;-73
2021/12/23 03:19:49;;;;;;;52.10;23.93;;;;;;;-2.25;90.53;101802.41;5029584;28;21007;-74
2021/12/23 03:22:14;;;;;;;46.63;23.03;;;;;;;-2.21;91.16;101808.56;5029761;28;20221;-74
2021/12/23 03:24:39;;;;;;;56.37;25.33;;;;;;;-2.20;90.39;101805.31;5013405;28;20190;-74
2021/12/23 03:27:05;;;;;;;48.97;23.67;;;;;;;-2.22;90.62;101796.75;5031150;28;20186;-74
2021/12/23 03:29:30;;;;;;;54.40;24.90;;;;;;;-2.23;90.17;101795.91;5030738;28;20182;-74
2021/12/23 03:31:56;;;;;;;51.37;24.10;;;;;;;-2.18;90.79;101782.13;5030975;28;20739;-73
2021/12/23 03:34:21;;;;;;;52.13;25.30;;;;;;;-2.16;90.21;101773.09;5030715;28;20193;-74
2021/12/23 03:36:47;;;;;;;53.87;24.10;;;;;;;-2.18;90.68;101778.72;5031066;28;20686;-73
2021/12/23 03:39:12;;;;;;;51.37;23.73;;;;;;;-2.19;90.24;101772.84;5028913;28;20190;-73
2021/12/23 03:41:37;;;;;;;54.57;24.60;;;;;;;-2.18;90.54;101761.16;5029283;28;20209;-74
2021/12/23 03:44:03;;;;;;;55.03;25.60;;;;;;;-2.15;90.62;101761.44;5030754;28;20190;-75
2021/12/23 03:46:28;;;;;;;51.93;23.50;;;;;;;-2.17;90.62;101753.78;5031175;28;20210;-73
2021/12/23 03:48:54;;;;;;;53.47;24.97;;;;;;;-2.21;90.77;101760.94;5029862;28;20186;-75
2021/12/23 03:51:19;;;;;;;50.93;23.97;;;;;;;-2.16;90.72;101750.50;5030724;28;20241;-75
2021/12/23 03:53:44;;;;;;;52.63;24.03;;;;;;;-2.16;89.86;101753.03;5030810;28;20241;-73
2021/12/23 03:56:10;;;;;;;50.43;24.27;;;;;;;-2.17;90.55;101745.38;5029435;28;20187;-74
2021/12/23 03:58:36;;;;;;;54.30;24.33;;;;;;;-2.20;90.43;101738.47;5029148;28;20187;-74
2021/12/23 04:01:03;;;;;;;57.30;24.83;;;;;;;-2.21;90.35;101729.19;5030712;28;20312;-73
2021/12/23 04:03:28;;;;;;;53.03;24.27;;;;;;;-2.21;90.65;101728.34;5030383;28;20206;-73
2021/12/23 04:05:54;;;;;;;55.37;24.70;;;;;;;-2.20;90.60;101725.94;5030322;28;20437;-75
2021/12/23 04:08:19;;;;;;;53.30;23.53;;;;;;;-2.19;90.51;101717.69;5012629;28;20210;-73
2021/12/23 04:10:45;;;;;;;50.03;24.63;;;;;;;-2.19;91.05;101716.78;5028714;28;20217;-74
2021/12/23 04:13:10;;;;;;;50.77;24.93;;;;;;;-2.15;90.87;101717.16;5028925;28;20201;-74
2021/12/23 04:15:36;;;;;;;53.80;25.67;;;;;;;-2.16;90.69;101712.03;5028898;28;20671;-72
2021/12/23 04:18:03;;;;;;;55.50;25.80;;;;;;;-2.20;91.00;101697.50;5045562;28;20304;-75
2021/12/23 04:20:35;;;;;;;51.27;24.73;;;;;;;-2.17;90.86;101696.09;5029903;28;20519;-74
2021/12/23 04:23:03;;;;;;;55.60;25.13;;;;;;;-2.15;90.49;101689.56;5028997;28;20452;-75
2021/12/23 04:25:29;;;;;;;53.70;24.73;;;;;;;-2.15;90.74;101693.72;5030174;28;20802;-73
2021/12/23 04:27:57;;;;;;;53.43;24.97;;;;;;;-2.12;90.65;101696.50;5029931;28;20847;-72
2021/12/23 04:30:24;;;;;;;51.07;24.27;;;;;;;-2.11;90.41;101683.19;5011759;28;20474;-74
2021/12/23 04:32:49;;;;;;;52.17;24.80;;;;;;;-2.04;90.68;101680.44;5029326;28;20475;-73
2021/12/23 04:35:15;;;;;;;55.00;25.73;;;;;;;-2.08;90.52;101683.44;5028199;28;20441;-73
2021/12/23 04:37:41;;;;;;;52.80;24.30;;;;;;;-2.13;90.58;101679.66;5029637;28;20199;-77
2021/12/23 04:40:08;;;;;;;55.00;25.70;;;;;;;-2.10;90.48;101672.41;5028055;28;20313;-74
2021/12/23 04:42:34;;;;;;;54.13;25.13;;;;;;;-2.10;90.44;101669.91;5028536;28;20195;-73
2021/12/23 04:45:00;;;;;;;51.70;25.00;;;;;;;-2.13;90.82;101670.53;5029780;28;20468;-73
2021/12/23 04:47:25;;;;;;;50.50;24.23;;;;;;;-2.12;90.68;101672.28;5029760;28;20563;-73
2021/12/23 04:49:50;;;;;;;56.80;25.70;;;;;;;-2.17;91.18;101676.03;5029008;28;20214;-72
2021/12/23 04:52:16;;;;;;;55.30;26.03;;;;;;;-2.18;91.13;101671.78;5029575;28;20651;-73
2021/12/23 04:54:41;;;;;;;55.50;26.30;;;;;;;-2.12;90.73;101658.88;5028358;28;20566;-74
2021/12/23 04:57:07;;;;;;;55.67;24.73;;;;;;;-2.05;91.20;101653.59;5028232;28;20209;-73
2021/12/23 04:59:32;;;;;;;52.17;25.47;;;;;;;-2.12;90.85;101657.22;5029434;28;20628;-73
2021/12/23 05:01:58;;;;;;;56.87;24.90;;;;;;;-2.10;90.95;101635.69;5029438;28;20213;-74
2021/12/23 05:04:23;;;;;;;54.97;25.83;;;;;;;-2.11;90.83;101620.50;5029505;28;20381;-73
2021/12/23 05:06:48;;;;;;;53.37;25.00;;;;;;;-2.09;90.99;101618.97;5028983;28;20198;-73
2021/12/23 05:09:13;;;;;;;54.90;25.43;;;;;;;-2.08;91.16;101610.69;5027962;28;20559;-72
2021/12/23 05:11:39;;;;;;;56.30;26.27;;;;;;;-2.12;91.23;101626.28;5028231;28;20739;-73
2021/12/23 05:14:04;;;;;;;54.73;26.07;;;;;;;-2.07;91.02;101609.97;5029722;28;20549;-74
2021/12/23 05:16:29;;;;;;;51.73;25.13;;;;;;;-2.04;91.09;101617.72;5028248;28;20552;-72
2021/12/23 05:18:55;;;;;;;54.23;25.40;;;;;;;-2.08;90.89;101624.13;5027812;28;20198;-73
2021/12/23 05:21:20;;;;;;;55.97;26.50;;;;;;;-2.03;90.85;101606.94;5028027;28;20222;-73
2021/12/23 05:23:45;;;;;;;48.47;23.80;;;;;;;-2.02;91.23;101618.75;5028823;28;20198;-73
2021/12/23 05:26:11;;;;;;;55.03;26.27;;;;;;;-2.02;90.94;101599.53;5029024;28;20206;-74
2021/12/23 05:28:37;;;;;;;58.50;27.10;;;;;;;-1.99;91.32;101579.72;5028778;28;20190;-73
2021/12/23 05:31:03;;;;;;;55.67;25.63;;;;;;;-1.98;90.69;101578.97;5011086;28;20573;-73
2021/12/23 05:33:28;;;;;;;55.50;25.93;;;;;;;-1.98;90.71;101586.50;5027885;28;20252;-73
2021/12/23 05:35:55;;;;;;;50.53;24.37;;;;;;;-2.03;91.21;101580.22;5029005;28;20440;-74
2021/12/23 05:38:21;;;;;;;56.73;25.33;;;;;;;-1.94;90.80;101565.03;5028680;28;20205;-73
2021/12/23 05:40:46;;;;;;;48.07;24.30;;;;;;;-1.99;91.33;101563.78;5011045;28;20511;-73
2021/12/23 05:43:12;;;;;;;54.27;26.10;;;;;;;-1.95;90.98;101546.63;5027779;28;20807;-74
2021/12/23 05:45:37;;;;;;;45.97;24.03;;;;;;;-1.93;90.85;101539.22;5032005;28;20190;-75
2021/12/23 05:48:03;;;;;;;51.43;24.97;;;;;;;-1.92;90.53;101531.78;5032633;28;20183;-73
2021/12/23 05:50:28;;;;;;;46.10;22.87;;;;;;;-1.91;90.66;101540.19;5033060;28;20201;-73
2021/12/23 05:52:54;;;;;;;50.60;24.23;;;;;;;-1.93;90.73;101531.69;5031325;28;20206;-74
2021/12/23 05:55:20;;;;;;;47.93;24.77;;;;;;;-1.92;90.75;101521.75;5031737;28;20217;-74
2021/12/23 05:57:46;;;;;;;47.13;24.70;;;;;;;-1.85;90.69;101518.97;5031314;28;20209;-73
2021/12/23 06:00:14;;;;;;;50.43;25.30;;;;;;;-1.81;91.11;101510.06;5032011;28;21004;-73
2021/12/23 06:02:40;;;;;;;45.60;23.30;;;;;;;-1.87;90.42;101507.06;5032818;28;20271;-73
2021/12/23 06:05:06;;;;;;;48.37;23.77;;;;;;;-1.87;90.58;101509.59;5032822;28;20635;-75
2021/12/23 06:07:31;;;;;;;47.03;24.03;;;;;;;-1.87;90.51;101518.00;5030937;28;20240;-74
2021/12/23 06:09:57;;;;;;;46.77;23.27;;;;;;;-1.87;90.62;101514.59;5032307;28;20477;-73
2021/12/23 06:12:22;;;;;;;48.77;24.50;;;;;;;-1.88;90.70;101513.72;5032594;28;20187;-73
2021/12/23 06:14:48;;;;;;;46.43;22.70;;;;;;;-1.85;90.78;101500.53;5032287;28;20194;-74
2021/12/23 06:17:13;;;;;;;48.93;24.37;;;;;;;-1.82;90.68;101490.75;5032544;28;20175;-73
2021/12/23 06:19:39;;;;;;;47.13;24.50;;;;;;;-1.79;90.58;101486.84;5031800;28;20272;-73
2021/12/23 06:22:04;;;;;;;45.33;22.93;;;;;;;-1.83;90.27;101486.50;5032517;28;20305;-73
2021/12/23 06:24:31;;;;;;;43.47;24.07;;;;;;;-1.78;90.81;101470.16;5031222;28;20260;-73
2021/12/23 06:26:56;;;;;;;45.30;23.10;;;;;;;-1.80;90.66;101479.19;5031337;28;20197;-73
2021/12/23 06:29:21;;;;;;;45.27;22.77;;;;;;;-1.84;90.68;101464.69;5031375;28;20449;-74
2021/12/23 06:31:46;;;;;;;47.03;23.97;;;;;;;-1.75;90.56;101452.84;5032299;28;20195;-72
2021/12/23 06:34:12;;;;;;;46.20;23.47;;;;;;;-1.77;90.73;101445.19;5032386;28;20218;-75
2021/12/23 06:36:37;;;;;;;46.27;23.00;;;;;;;-1.78;90.74;101440.94;5032077;28;20209;-73
2021/12/23 06:39:05;;;;;;;45.53;22.57;;;;;;;-1.79;90.71;101425.75;5032014;28;20236;-74
2021/12/23 06:41:31;;;;;;;49.80;24.53;;;;;;;-1.76;91.07;101425.97;5042302;28;20777;-73
2021/12/23 06:43:56;;;;;;;46.20;23.43;;;;;;;-1.75;90.81;101412.69;5032877;28;20463;-74
2021/12/23 06:46:21;;;;;;;44.93;23.57;;;;;;;-1.76;90.71;101403.38;5036527;28;20189;-74
2021/12/23 06:48:47;;;;;;;42.90;22.67;;;;;;;-1.75;90.63;101395.13;5041669;28;20214;-74
2021/12/23 06:51:12;;;;;;;46.97;23.07;;;;;;;-1.77;90.38;101384.97;5031876;28;20206;-73
2021/12/23 06:53:38;;;;;;;47.43;23.43;;;;;;;-1.80;90.69;101396.38;5030823;28;20233;-74
2021/12/23 06:56:03;;;;;;;44.23;23.50;;;;;;;-1.82;90.57;101421.38;5031525;28;20182;-74
2021/12/23 06:58:31;;;;;;;52.17;25.33;;;;;;;-1.78;90.95;101405.81;5036992;28;20194;-74
2021/12/23 07:00:57;;;;;;;47.47;23.43;;;;;;;-1.78;90.81;101418.34;5050237;28;20296;-74
2021/12/23 07:03:30;;;;;;;51.73;23.70;;;;;;;-1.80;90.97;101393.88;5050378;28;20563;-74
2021/12/23 07:06:04;;;;;;;49.50;24.50;;;;;;;-1.75;90.73;101393.47;5050510;28;20220;-72
2021/12/23 07:08:30;;;;;;;47.10;24.27;;;;;;;-1.79;90.77;101376.44;5051572;28;20504;-75
2021/12/23 07:10:55;;;;;;;46.73;23.80;;;;;;;-1.73;90.93;101354.34;5050166;28;20440;-73
2021/12/23 07:13:21;;;;;;;44.37;23.23;;;;;;;-1.76;90.94;101358.22;5051584;28;20509;-74
2021/12/23 07:15:47;;;;;;;45.93;24.03;;;;;;;-1.77;90.73;101347.34;5050320;28;20189;-74
2021/12/23 07:18:13;;;;;;;48.80;23.07;;;;;;;-1.72;91.01;101337.63;5051219;28;20198;-73
2021/12/23 07:20:38;;;;;;;44.30;23.50;;;;;;;-1.73;91.18;101339.28;5051318;28;20480;-73
2021/12/23 07:23:03;;;;;;;45.23;24.07;;;;;;;-1.72;90.68;101345.16;5051393;28;20248;-74
2021/12/23 07:25:29;;;;;;;48.07;24.57;;;;;;;-1.73;90.79;101334.25;5039633;28;20194;-74
2021/12/23 07:27:54;;;;;;;47.23;24.47;;;;;;;-1.69;91.10;101328.69;5031347;28;20248;-74
2021/12/23 07:30:21;;;;;;;45.43;24.47;;;;;;;-1.71;90.92;101319.31;5029830;28;20198;-74
2021/12/23 07:32:50;;;;;;;44.77;23.53;;;;;;;-1.72;90.82;101318.44;5013464;28;20219;-74
2021/12/23 07:35:17;;;;;;;45.63;23.73;;;;;;;-1.67;90.64;101309.63;5031279;28;20445;-73
2021/12/23 07:37:43;;;;;;;46.80;23.17;;;;;;;-1.61;90.31;101295.00;5031429;28;20429;-74
2021/12/23 07:40:13;;;;;;;44.60;24.27;;;;;;;-1.66;90.60;101310.50;5031234;28;20982;-75
2021/12/23 07:42:42;;;;;;;40.93;21.63;;;;;;;-1.65;90.73;101322.28;5031190;28;20826;-75
2021/12/23 07:45:08;;;;;;;44.13;22.57;;;;;;;-1.67;90.32;101339.75;5029790;28;20443;-73
2021/12/23 07:47:33;;;;;;;44.67;23.10;;;;;;;-1.67;90.35;101352.28;5032030;28;20437;-75
2021/12/23 07:49:58;;;;;;;40.63;22.57;;;;;;;-1.64;90.37;101365.06;5049253;28;20212;-74
2021/12/23 07:52:24;;;;;;;41.80;23.70;;;;;;;-1.66;90.38;101361.56;5050863;28;20186;-74
2021/12/23 07:54:50;;;;;;;43.67;22.90;;;;;;;-1.64;90.24;101367.59;5050890;28;20188;-73
2021/12/23 07:57:16;;;;;;;48.43;24.40;;;;;;;-1.60;90.23;101374.56;5049764;28;20296;-73
2021/12/23 07:59:41;;;;;;;46.13;23.07;;;;;;;-1.63;90.11;101373.47;5049555;28;20963;-74
2021/12/23 08:02:07;;;;;;;44.13;22.77;;;;;;;-1.62;90.61;101368.56;5051029;28;20185;-69
2021/12/23 08:04:33;;;;;;;48.23;24.93;;;;;;;-1.56;90.45;101373.19;5049315;28;20602;-74
2021/12/23 08:07:02;;;;;;;45.27;24.00;;;;;;;-1.55;90.25;101370.78;5050175;28;20593;-73
2021/12/23 08:09:28;;;;;;;44.67;24.57;;;;;;;-1.55;90.26;101382.44;5050332;28;20436;-75
2021/12/23 08:11:54;;;;;;;39.23;21.97;;;;;;;-1.54;90.26;101362.50;5051444;28;20523;-75
2021/12/23 08:14:19;;;;;;;43.97;21.83;;;;;;;-1.53;90.40;101378.41;5029841;28;20200;-74
2021/12/23 08:16:45;;;;;;;41.87;21.87;;;;;;;-1.47;90.49;101402.34;5040878;28;20194;-74
2021/12/23 08:19:10;;;;;;;43.50;23.80;;;;;;;-1.51;90.76;101397.84;5044591;28;20262;-73
2021/12/23 08:21:36;;;;;;;40.77;22.27;;;;;;;-1.50;90.86;101384.56;5029791;28;20252;-74
2021/12/23 08:24:02;;;;;;;39.63;22.07;;;;;;;-1.48;90.98;101389.66;5030506;28;20195;-73
2021/12/23 08:26:29;;;;;;;43.83;23.63;;;;;;;-1.51;90.92;101395.31;5030341;28;20247;-74
2021/12/23 08:28:57;;;;;;;44.27;21.90;;;;;;;-1.47;90.85;101382.25;5029225;28;20659;-73
2021/12/23 08:31:24;;;;;;;41.13;22.40;;;;;;;-1.47;90.60;101371.34;5030002;28;20213;-73
2021/12/23 08:33:50;;;;;;;39.07;22.00;;;;;;;-1.47;90.54;101386.41;5012668;28;20281;-73
2021/12/23 08:36:16;;;;;;;41.10;21.77;;;;;;;-1.41;90.75;101361.75;5030239;28;20208;-73
2021/12/23 08:38:43;;;;;;;44.33;22.20;;;;;;;-1.38;90.90;101362.00;5029780;28;20664;-73
2021/12/23 08:41:08;;;;;;;42.17;22.07;;;;;;;-1.33;90.88;101348.16;5012070;28;20275;-74
2021/12/23 08:43:33;;;;;;;39.27;22.60;;;;;;;-1.30;90.72;101356.75;5029891;28;20179;-75
2021/12/23 08:45:59;;;;;;;43.60;23.53;;;;;;;-1.23;91.12;101330.47;5029707;28;20651;-74
2021/12/23 08:48:24;;;;;;;40.47;23.40;;;;;;;-1.21;90.63;101333.97;5029583;28;20605;-75
2021/12/23 08:50:51;;;;;;;42.07;23.37;;;;;;;-1.22;91.17;101319.66;5029700;28;20221;-75
2021/12/23 08:53:17;;;;;;;39.70;22.57;;;;;;;-1.17;90.76;101301.66;5029639;28;20336;-74
2021/12/23 08:55:42;;;;;;;41.13;22.60;;;;;;;-1.13;90.96;101302.75;5029714;28;20262;-73
2021/12/23 08:58:08;;;;;;;40.10;22.70;;;;;;;-1.05;90.75;101294.13;5029365;28;20174;-74
2021/12/23 09:00:36;;;;;;;36.30;21.03;;;;;;;-1.05;90.13;101291.63;5029393;28;20790;-72
2021/12/23 09:03:05;;;;;;;37.67;23.80;;;;;;;-1.12;90.58;101297.84;5027188;28;20206;-73
2021/12/23 09:05:31;;;;;;;41.27;24.03;;;;;;;-1.09;90.07;101290.50;5029468;28;20548;-74
2021/12/23 09:07:56;;;;;;;38.27;23.17;;;;;;;-1.01;90.42;101288.56;5029172;28;20202;-73
2021/12/23 09:10:22;;;;;;;35.23;20.73;;;;;;;-1.01;90.25;101293.59;5027919;28;20218;-75
2021/12/23 09:12:48;;;;;;;35.30;21.13;;;;;;;-1.03;90.51;101300.13;5029297;28;20209;-74
2021/12/23 09:15:14;;;;;;;40.63;23.13;;;;;;;-1.00;89.84;101308.75;5027976;28;20246;-74
2021/12/23 09:17:39;;;;;;;37.60;21.07;;;;;;;-0.99;90.08;101287.03;5029469;28;20182;-73
2021/12/23 09:20:07;;;;;;;43.70;25.07;;;;;;;-0.90;89.90;101287.69;5029099;28;20589;-74
2021/12/23 09:22:33;;;;;;;36.90;21.77;;;;;;;-0.90;89.70;101288.56;5029531;28;20229;-72
2021/12/23 09:25:03;;;;;;;39.63;22.07;;;;;;;-0.85;89.89;101282.22;5029858;28;20217;-74
2021/12/23 09:27:41;;;;;;;37.57;22.03;;;;;;;-0.76;89.86;101279.47;5028776;28;20178;-76
2021/12/23 09:32:55;;;;;;;35.10;22.13;;;;;;;-0.60;89.56;101283.16;5028065;28;20217;-74
2021/12/23 09:35:23;;;;;;;34.73;21.73;;;;;;;-0.58;89.34;101271.59;5029188;28;20224;-76
2021/12/23 09:37:49;;;;;;;36.87;21.67;;;;;;;-0.51;88.46;101273.75;5029065;28;20651;-75
2021/12/23 09:40:16;;;;;;;35.20;19.73;;;;;;;-0.42;88.26;101265.97;5028729;28;20214;-76
2021/12/23 09:42:43;;;;;;;33.40;21.23;;;;;;;-0.34;88.44;101259.81;5029259;28;20230;-75
2021/12/23 09:45:14;;;;;;;33.87;19.80;;;;;;;-0.35;88.10;101243.88;5028407;28;20179;-75
2021/12/23 09:47:41;;;;;;;35.17;20.80;;;;;;;-0.19;87.78;101243.25;5029054;28;20198;-75
2021/12/23 09:50:10;;;;;;;31.17;19.63;;;;;;;-0.17;87.64;101232.53;5044064;28;20312;-75
2021/12/23 09:52:46;;;;;;;34.50;20.37;;;;;;;-0.20;87.51;101249.06;5029169;28;20226;-75
2021/12/23 09:55:19;;;;;;;34.67;20.80;;;;;;;-0.21;87.04;101229.72;5044178;28;20240;-76
2021/12/23 09:57:47;;;;;;;36.43;21.57;;;;;;;-0.25;87.99;101243.75;5028386;28;20190;-75
2021/12/23 10:00:15;;;;;;;32.73;20.47;;;;;;;-0.34;88.25;101224.63;5028488;28;20211;-74
2021/12/23 10:02:42;;;;;;;34.77;21.00;;;;;;;-0.41;88.60;101233.38;5007737;28;20687;-74
2021/12/23 10:05:20;;;;;;;33.97;19.33;;;;;;;-0.44;88.66;101240.75;5028047;28;20199;-75
2021/12/23 10:07:47;;;;;;;35.13;20.87;;;;;;;-0.37;89.14;101221.88;5017745;28;20236;-75
2021/12/23 10:10:25;;;;;;;36.60;21.03;;;;;;;-0.33;87.73;101203.72;5027250;28;20210;-74
2021/12/23 10:26:49;;;;;;;34.30;20.80;;;;;;;-0.12;88.66;101185.94;5002982;28;20226;-75
2021/12/23 10:38:03;;;;;;;37.50;21.13;;;;;;;-0.17;88.39;101079.06;5030613;28;20187;-74
2021/12/23 10:40:29;;;;;;;35.10;20.40;;;;;;;-0.12;88.75;101079.38;5031788;28;20357;-74
2021/12/23 10:42:55;;;;;;;36.00;20.43;;;;;;;-0.16;89.18;101085.00;5032051;28;20793;-74
2021/12/23 10:45:20;;;;;;;34.27;20.60;;;;;;;-0.10;88.83;101081.22;5030661;28;20274;-74
2021/12/23 10:50:32;;;;;;;34.63;22.10;;;;;;;-0.05;89.05;101038.75;5030283;28;20206;-74
2021/12/23 10:53:10;;;;;;;34.23;21.23;;;;;;;-0.08;88.59;101038.56;5031639;28;20191;-74
2021/12/23 10:58:20;;;;;;;37.90;23.37;;;;;;;-0.05;88.56;101046.28;5030796;28;20215;-73
2021/12/23 11:00:49;;;;;;;37.17;21.87;;;;;;;-0.11;89.28;101055.97;5031147;28;20671;-74
2021/12/23 11:03:28;;;;;;;35.47;22.03;;;;;;;-0.16;89.30;101067.38;5031620;28;20186;-74
2021/12/23 11:06:14;;;;;;;36.83;22.17;;;;;;;-0.21;89.96;101049.50;5047154;28;20205;-72
2021/12/23 11:09:01;;;;;;;36.03;22.80;;;;;;;-0.16;89.81;101039.72;5029026;28;20198;-74
2021/12/23 11:11:44;;;;;;;36.80;22.40;;;;;;;-0.07;89.94;101030.25;5031514;28;20206;-74
2021/12/23 11:39:32;;;;;;;32.40;21.23;;;;;;;0.14;89.77;101008.97;5029586;28;20240;-74
2021/12/23 11:42:15;;;;;;;34.83;21.33;;;;;;;0.15;88.61;101001.47;5030059;28;20183;-74
2021/12/23 11:44:41;;;;;;;33.07;20.97;;;;;;;0.19;88.90;100997.53;5031136;28;20349;-74
2021/12/23 11:47:11;;;;;;;37.93;22.43;;;;;;;0.19;88.85;100993.34;5029720;28;20285;-74
2021/12/23 11:49:39;;;;;;;33.87;21.83;;;;;;;0.20;88.89;100989.19;5030595;28;20277;-73
2021/12/23 11:52:05;;;;;;;35.40;21.13;;;;;;;0.20;88.39;100981.66;5030886;28;20194;-74
2021/12/23 11:54:33;;;;;;;31.07;20.00;;;;;;;0.23;88.83;100972.63;5030743;28;20821;-73
2021/12/23 11:57:05;;;;;;;34.33;20.93;;;;;;;0.27;88.99;100978.72;5029318;28;20711;-73
2021/12/23 11:59:36;;;;;;;31.90;20.97;;;;;;;0.32;88.18;100973.97;5030433;28;20277;-74
2021/12/23 12:02:12;;;;;;;34.73;21.00;;;;;;;0.36;88.70;100961.66;5030825;28;20190;-74
2021/12/23 12:04:37;;;;;;;34.43;21.80;;;;;;;0.41;88.42;100962.81;5031095;28;20537;-73
2021/12/23 12:07:18;;;;;;;34.27;21.40;;;;;;;0.44;88.23;100957.97;5030806;28;20190;-74
2021/12/23 12:10:08;;;;;;;32.60;20.87;;;;;;;0.41;88.05;100950.22;5029035;28;20269;-74